Terminal Aerodrome Forecast
Issued by NWS North Platte, NE

Home | Current Version | Previous Version | Text Only | Print | Product List | Glossary On
Versions: 1 2 3 4 5 6 7 8 9 10 11 12 13 14 15 16 17 18 19 20 21
000
FTUS43 KLBF 280520
TAFLBF
TAF
KLBF 280520Z 2806/2906 VRB04KT P6SM SCT040 SCT060 OVC150
     FM281800 29006KT P6SM SCT050 BKN100
     FM290000 23005KT P6SM SCT100 SCT250=

USA.gov is the U.S. government's official web portal to all federal, state and local government web resources and services.